createdAt,value
2018-05-05T00:01:13.666Z,65.20
2018-05-05T00:03:41.361Z,65.20
2018-05-05T00:06:09.758Z,66.00
2018-05-05T00:08:37.298Z,65.90
2018-05-05T00:11:05.677Z,65.50
2018-05-05T00:13:33.259Z,65.40
2018-05-05T00:16:00.831Z,65.30
2018-05-05T00:18:28.467Z,65.30
2018-05-05T00:20:56.093Z,65.50
2018-05-05T00:23:23.690Z,65.50
2018-05-05T00:25:51.274Z,65.40
2018-05-05T00:28:18.827Z,65.80
2018-05-05T00:30:46.402Z,65.60
2018-05-05T00:33:14.024Z,65.50
2018-05-05T00:35:42.672Z,65.10
2018-05-05T00:38:10.274Z,65.10
2018-05-05T00:40:37.875Z,65.60
2018-05-05T00:43:05.437Z,65.70
2018-05-05T00:45:33.049Z,65.50
2018-05-05T00:48:01.404Z,65.80
2018-05-05T00:50:29.824Z,65.70
2018-05-05T00:53:08.494Z,65.60
2018-05-05T00:55:36.098Z,66.50
2018-05-05T00:58:04.485Z,67.00
2018-05-05T01:00:32.793Z,67.00
2018-05-05T01:03:00.407Z,67.10
2018-05-05T01:05:28.740Z,67.70
2018-05-05T01:07:56.331Z,67.70
2018-05-05T01:10:24.836Z,67.60
2018-05-05T01:12:52.512Z,67.80
2018-05-05T01:15:20.097Z,67.60
2018-05-05T01:17:47.633Z,67.80
2018-05-05T01:20:15.231Z,67.90
2018-05-05T01:22:42.884Z,67.80
2018-05-05T01:25:10.442Z,68.30
2018-05-05T01:27:37.994Z,68.40
2018-05-05T01:30:05.582Z,68.90
2018-05-05T01:32:33.155Z,69.40
2018-05-05T01:35:00.734Z,69.50
2018-05-05T01:37:29.073Z,69.80
2018-05-05T01:39:57.590Z,69.80
2018-05-05T01:42:25.939Z,69.90
2018-05-05T01:44:53.535Z,70.00
2018-05-05T01:47:21.884Z,69.80
2018-05-05T01:49:49.501Z,69.70
2018-05-05T01:52:17.062Z,69.60
2018-05-05T01:54:44.641Z,69.60
2018-05-05T01:57:12.197Z,69.10
2018-05-05T01:59:39.793Z,68.80
2018-05-05T02:02:07.409Z,68.70
2018-05-05T02:04:34.997Z,68.40
2018-05-05T02:07:02.874Z,67.60
2018-05-05T02:09:30.728Z,67.70
2018-05-05T02:11:58.311Z,66.90
2018-05-05T02:14:26.674Z,66.80
2018-05-05T02:16:54.349Z,66.80
2018-05-05T02:19:21.950Z,66.70
2018-05-05T02:21:49.637Z,66.10
2018-05-05T02:24:17.195Z,66.20
2018-05-05T02:26:44.833Z,66.30
2018-05-05T02:29:12.369Z,66.20
2018-05-05T02:31:40.721Z,66.30
2018-05-05T02:34:08.316Z,66.30
2018-05-05T02:36:35.870Z,65.90
2018-05-05T02:39:03.507Z,65.80
2018-05-05T02:41:31.076Z,65.60
2018-05-05T02:43:58.673Z,65.50
2018-05-05T02:46:26.238Z,65.30
2018-05-05T02:48:53.824Z,65.20
2018-05-05T02:51:21.370Z,65.00
2018-05-05T02:53:48.958Z,64.70
2018-05-05T02:56:16.547Z,64.60
2018-05-05T02:58:44.184Z,65.00
2018-05-05T03:01:11.825Z,64.80
2018-05-05T03:03:39.398Z,64.60
2018-05-05T03:06:07.028Z,64.80
2018-05-05T03:08:34.603Z,64.80
2018-05-05T03:11:02.210Z,64.50
2018-05-05T03:13:30.531Z,64.30
2018-05-05T03:15:58.127Z,64.30
2018-05-05T03:18:25.813Z,64.10
2018-05-05T03:20:53.509Z,64.60
2018-05-05T03:23:21.112Z,64.50
2018-05-05T03:25:48.719Z,64.50
2018-05-05T03:28:16.335Z,64.20
2018-05-05T03:30:43.947Z,64.30
2018-05-05T03:33:11.512Z,64.70
2018-05-05T03:35:39.119Z,64.80
2018-05-05T03:38:06.689Z,65.00
2018-05-05T03:40:35.024Z,65.30
2018-05-05T03:43:04.327Z,65.40
2018-05-05T03:45:31.899Z,65.40
2018-05-05T03:47:59.444Z,65.60
2018-05-05T03:50:26.997Z,65.80
2018-05-05T03:52:54.574Z,65.50
2018-05-05T03:55:22.138Z,65.80
2018-05-05T03:57:49.705Z,66.00
2018-05-05T04:00:29.104Z,65.80
2018-05-05T04:05:55.226Z,66.40
2018-05-05T04:08:23.675Z,66.80
2018-05-05T04:10:51.261Z,66.70
2018-05-05T04:13:19.677Z,66.60
2018-05-05T04:15:47.238Z,66.50
2018-05-05T04:18:14.828Z,66.40
2018-05-05T04:20:42.399Z,66.30
2018-05-05T04:23:09.997Z,66.00
2018-05-05T04:25:37.668Z,66.00
2018-05-05T04:28:05.307Z,65.80
2018-05-05T04:30:33.626Z,65.60
2018-05-05T04:33:01.211Z,65.60
2018-05-05T04:35:28.812Z,65.40
2018-05-05T04:37:58.119Z,65.70
2018-05-05T04:40:30.547Z,65.80
2018-05-05T04:42:58.092Z,65.80
2018-05-05T04:45:25.783Z,66.00
2018-05-05T04:47:53.371Z,66.20
2018-05-05T04:50:21.723Z,66.70
2018-05-05T04:52:49.316Z,66.70
2018-05-05T04:55:18.756Z,67.00
2018-05-05T04:57:46.318Z,67.00
2018-05-05T05:00:15.017Z,66.80
2018-05-05T05:02:42.634Z,67.00
2018-05-05T05:05:11.319Z,66.90
2018-05-05T05:07:38.884Z,66.60
2018-05-05T05:10:06.439Z,66.80
2018-05-05T05:12:34.813Z,67.20
2018-05-05T05:15:03.128Z,67.20
2018-05-05T05:17:30.730Z,67.20
2018-05-05T05:19:58.310Z,67.50
2018-05-05T05:22:26.714Z,66.90
2018-05-05T05:24:54.255Z,66.90
2018-05-05T05:27:22.594Z,66.50
2018-05-05T05:29:50.165Z,66.50
2018-05-05T05:32:17.783Z,66.40
2018-05-05T05:34:45.374Z,66.10
2018-05-05T05:37:13.775Z,65.30
2018-05-05T05:39:41.359Z,65.30
2018-05-05T05:42:08.920Z,65.70
2018-05-05T05:44:36.496Z,65.00
2018-05-05T05:47:04.111Z,64.70
2018-05-05T05:49:31.735Z,64.80
2018-05-05T05:51:59.319Z,64.80
2018-05-05T05:54:26.952Z,65.90
2018-05-05T05:56:54.528Z,65.50
2018-05-05T05:59:22.104Z,65.40
2018-05-05T06:01:49.712Z,65.20
2018-05-05T06:04:17.317Z,65.30
2018-05-05T06:06:44.886Z,65.50
2018-05-05T06:09:12.470Z,65.30
2018-05-05T06:11:40.808Z,65.10
2018-05-05T06:14:08.381Z,65.20
2018-05-05T06:16:35.980Z,64.80
2018-05-05T06:19:04.318Z,65.10
2018-05-05T06:21:31.901Z,65.10
2018-05-05T06:23:59.478Z,65.10
2018-05-05T06:26:27.115Z,65.00
2018-05-05T06:28:54.811Z,65.20
2018-05-05T06:31:23.258Z,65.20
2018-05-05T06:33:50.920Z,65.20
2018-05-05T06:36:18.561Z,65.10
2018-05-05T06:38:46.122Z,65.10
2018-05-05T06:41:13.722Z,65.30
2018-05-05T06:43:41.323Z,65.40
2018-05-05T06:46:08.947Z,65.70
2018-05-05T06:48:36.545Z,67.80
2018-05-05T06:51:04.157Z,68.50
2018-05-05T06:53:31.804Z,68.30
2018-05-05T06:55:59.668Z,68.70
2018-05-05T06:58:27.233Z,68.60
2018-05-05T07:00:54.814Z,69.60
2018-05-05T07:03:22.446Z,69.60
2018-05-05T07:05:50.793Z,70.80
2018-05-05T07:08:18.395Z,70.60
2018-05-05T07:10:46.012Z,71.30
2018-05-05T07:13:13.613Z,71.60
2018-05-05T07:15:41.263Z,71.50
2018-05-05T07:18:08.852Z,71.60
2018-05-05T07:20:36.414Z,71.70
2018-05-05T07:23:04.110Z,71.50
2018-05-05T07:25:31.669Z,71.30
2018-05-05T07:27:59.231Z,71.70
2018-05-05T07:30:26.865Z,71.80
2018-05-05T07:32:54.598Z,71.50
2018-05-05T07:35:22.213Z,70.90
2018-05-05T07:37:49.832Z,71.10
2018-05-05T07:40:17.469Z,70.70
2018-05-05T07:42:45.064Z,70.20
2018-05-05T07:45:12.665Z,70.00
2018-05-05T07:47:40.271Z,70.00
2018-05-05T07:50:07.842Z,70.80
2018-05-05T07:52:35.485Z,70.30
2018-05-05T07:55:03.080Z,69.70
2018-05-05T07:57:31.458Z,68.70
2018-05-05T07:59:59.793Z,67.70
2018-05-05T08:02:27.428Z,67.70
2018-05-05T08:04:55.016Z,67.00
2018-05-05T08:07:22.735Z,66.90
2018-05-05T08:09:50.380Z,67.50
2018-05-05T08:12:18.027Z,67.70
2018-05-05T08:14:46.452Z,67.50
2018-05-05T08:17:14.057Z,67.60
2018-05-05T08:19:41.710Z,67.60
2018-05-05T08:22:09.277Z,67.20
2018-05-05T08:24:36.838Z,66.10
2018-05-05T08:27:04.597Z,65.60
2018-05-05T08:29:32.153Z,65.50
2018-05-05T08:31:59.718Z,64.70
2018-05-05T08:34:27.412Z,64.30
2018-05-05T08:36:55.040Z,63.70
2018-05-05T08:39:22.665Z,63.60
2018-05-05T08:41:50.233Z,62.50
2018-05-05T08:44:17.850Z,61.20
2018-05-05T08:46:45.442Z,60.20
2018-05-05T08:49:13.173Z,59.70
2018-05-05T08:51:40.754Z,59.60
2018-05-05T08:54:08.412Z,59.80
2018-05-05T08:56:36.799Z,60.10
2018-05-05T08:59:04.394Z,60.00
2018-05-05T09:01:32.017Z,60.80
2018-05-05T09:04:00.047Z,61.20
2018-05-05T09:06:27.621Z,61.20
2018-05-05T09:08:55.225Z,61.10
2018-05-05T09:11:22.949Z,60.80
2018-05-05T09:13:50.894Z,59.60
2018-05-05T09:16:18.487Z,59.20
2018-05-05T09:18:46.835Z,58.60
2018-05-05T09:21:14.418Z,58.60
2018-05-05T09:23:42.012Z,57.80
2018-05-05T09:26:09.664Z,57.40
2018-05-05T09:28:37.285Z,57.50
2018-05-05T09:31:04.966Z,57.60
2018-05-05T09:33:32.624Z,56.90
2018-05-05T09:36:00.257Z,55.70
2018-05-05T09:38:27.832Z,54.80
2018-05-05T09:40:55.889Z,54.20
2018-05-05T09:43:23.596Z,54.10
2018-05-05T09:45:52.417Z,52.30
2018-05-05T09:48:20.042Z,52.40
2018-05-05T09:50:47.835Z,50.50
2018-05-05T09:53:15.617Z,51.00
2018-05-05T09:55:43.219Z,50.60
2018-05-05T09:58:10.944Z,50.10
2018-05-05T10:00:38.562Z,50.60
2018-05-05T10:03:06.933Z,48.00
2018-05-05T10:05:34.537Z,47.90
2018-05-05T10:08:02.221Z,47.00
2018-05-05T10:10:29.817Z,46.10
2018-05-05T10:12:57.487Z,46.60
2018-05-05T10:15:25.139Z,46.10
2018-05-05T10:17:52.836Z,45.50
2018-05-05T10:20:20.443Z,46.60
2018-05-05T10:22:50.005Z,47.10
2018-05-05T10:25:17.622Z,47.90
2018-05-05T10:27:45.369Z,48.30
2018-05-05T10:30:12.959Z,47.40
2018-05-05T10:32:40.569Z,48.80
2018-05-05T10:35:08.166Z,48.10
2018-05-05T10:37:35.812Z,47.10
2018-05-05T10:40:03.488Z,46.40
2018-05-05T10:42:31.093Z,45.90
2018-05-05T10:44:58.678Z,44.50
2018-05-05T10:47:26.294Z,43.80
2018-05-05T10:49:53.931Z,44.40
2018-05-05T10:52:21.686Z,45.10
2018-05-05T10:54:49.318Z,46.40
2018-05-05T10:57:16.908Z,47.30
2018-05-05T10:59:44.570Z,47.40
2018-05-05T11:02:12.149Z,47.10
2018-05-05T11:04:39.739Z,47.70
2018-05-05T11:07:08.064Z,49.50
2018-05-05T11:09:35.659Z,49.40
2018-05-05T11:12:04.026Z,49.70
2018-05-05T11:14:31.629Z,49.70
2018-05-05T11:16:59.257Z,50.30
2018-05-05T11:19:26.905Z,51.70
2018-05-05T11:21:54.510Z,51.90
2018-05-05T11:24:22.245Z,52.70
2018-05-05T11:26:50.601Z,54.20
2018-05-05T11:29:18.247Z,54.10
2018-05-05T11:31:45.825Z,53.60
2018-05-05T11:34:13.479Z,53.60
2018-05-05T11:36:41.060Z,53.60
2018-05-05T11:39:08.721Z,54.00
2018-05-05T11:41:36.317Z,53.90
2018-05-05T11:44:03.912Z,53.60
2018-05-05T11:46:31.592Z,52.60
2018-05-05T11:48:59.163Z,52.40
2018-05-05T11:51:26.866Z,51.80
2018-05-05T11:53:54.489Z,52.30
2018-05-05T11:56:22.275Z,52.20
2018-05-05T11:58:49.995Z,52.80
2018-05-05T12:01:17.578Z,53.00
2018-05-05T12:03:45.303Z,53.30
2018-05-05T12:06:12.907Z,53.60
2018-05-05T12:08:40.550Z,54.00
2018-05-05T12:11:08.209Z,54.00
2018-05-05T12:13:35.893Z,54.30
2018-05-05T12:16:03.451Z,54.10
2018-05-05T12:18:31.192Z,54.50
2018-05-05T12:20:58.811Z,54.10
2018-05-05T12:23:26.416Z,54.20
2018-05-05T12:25:54.006Z,54.30
2018-05-05T12:28:22.710Z,54.50
2018-05-05T12:30:50.271Z,54.50
2018-05-05T12:33:17.876Z,54.40
2018-05-05T12:35:45.660Z,54.20
2018-05-05T12:38:13.300Z,54.10
2018-05-05T12:40:41.077Z,54.50
2018-05-05T12:43:08.648Z,54.90
2018-05-05T12:45:36.288Z,55.00
2018-05-05T12:48:03.918Z,54.90
2018-05-05T12:50:31.495Z,54.00
2018-05-05T12:52:59.065Z,53.90
2018-05-05T12:55:26.726Z,54.10
2018-05-05T12:57:54.313Z,54.20
2018-05-05T13:00:21.863Z,53.90
2018-05-05T13:02:49.538Z,54.00
2018-05-05T13:05:17.141Z,54.50
2018-05-05T13:07:44.750Z,54.60
2018-05-05T13:10:12.426Z,54.50
2018-05-05T13:12:40.075Z,54.60
2018-05-05T13:15:07.686Z,54.80
2018-05-05T13:17:35.307Z,55.10
2018-05-05T13:20:02.960Z,55.20
2018-05-05T13:22:30.629Z,55.70
2018-05-05T13:24:58.255Z,56.50
2018-05-05T13:27:26.255Z,56.10
2018-05-05T13:29:53.877Z,56.30
2018-05-05T13:32:21.469Z,56.30
2018-05-05T13:34:49.050Z,55.90
2018-05-05T13:37:16.706Z,56.00
2018-05-05T13:39:44.369Z,56.10
2018-05-05T13:42:11.932Z,55.90
2018-05-05T13:44:39.585Z,55.90
2018-05-05T13:47:07.245Z,55.50
2018-05-05T13:49:34.841Z,55.70
2018-05-05T13:52:02.455Z,55.50
2018-05-05T13:54:30.080Z,55.90
2018-05-05T13:56:57.678Z,56.30
2018-05-05T13:59:25.281Z,56.20
2018-05-05T14:01:52.881Z,56.10
2018-05-05T14:04:20.497Z,56.40
2018-05-05T14:06:48.419Z,55.70
2018-05-05T14:09:15.987Z,55.40
2018-05-05T14:11:43.531Z,55.00
2018-05-05T14:14:11.143Z,55.30
2018-05-05T14:16:38.771Z,55.30
2018-05-05T14:19:06.559Z,55.10
2018-05-05T14:21:34.162Z,55.20
2018-05-05T14:24:01.880Z,55.40
2018-05-05T14:26:29.664Z,55.00
2018-05-05T14:28:58.024Z,54.10
2018-05-05T14:31:25.671Z,54.10
2018-05-05T14:33:53.333Z,53.90
2018-05-05T14:36:20.999Z,54.00
2018-05-05T14:38:48.615Z,54.50
2018-05-05T14:41:16.183Z,54.90
2018-05-05T14:43:43.762Z,55.00
2018-05-05T14:46:11.331Z,54.90
2018-05-05T14:48:39.061Z,54.90
2018-05-05T14:51:06.640Z,55.10
2018-05-05T14:53:34.248Z,54.80
2018-05-05T14:56:02.596Z,54.40
2018-05-05T14:58:30.198Z,54.40
2018-05-05T15:00:58.728Z,54.70
2018-05-05T15:03:26.346Z,54.90
2018-05-05T15:05:53.956Z,54.80
2018-05-05T15:08:21.515Z,55.00
2018-05-05T15:10:49.126Z,55.20
2018-05-05T15:13:16.689Z,55.50
2018-05-05T15:15:44.290Z,56.00
2018-05-05T15:18:11.904Z,55.90
2018-05-05T15:20:39.516Z,56.10
2018-05-05T15:23:07.074Z,55.50
2018-05-05T15:25:34.789Z,55.50
2018-05-05T15:28:02.443Z,55.70
2018-05-05T15:30:30.894Z,56.00
2018-05-05T15:32:58.478Z,56.00
2018-05-05T15:35:26.065Z,55.50
2018-05-05T15:37:53.678Z,56.00
2018-05-05T15:40:21.279Z,55.80
2018-05-05T15:42:48.896Z,55.60
2018-05-05T15:45:16.541Z,55.70
2018-05-05T15:47:44.091Z,55.90
2018-05-05T15:50:11.759Z,55.90
2018-05-05T15:52:39.338Z,55.80
2018-05-05T15:55:06.981Z,55.80
2018-05-05T15:57:34.559Z,55.60
2018-05-05T16:00:02.221Z,55.20
2018-05-05T16:02:30.018Z,54.80
2018-05-05T16:04:59.190Z,55.10
2018-05-05T16:07:26.783Z,54.80
2018-05-05T16:09:54.403Z,55.00
2018-05-05T16:12:22.385Z,54.80
2018-05-05T16:14:50.038Z,54.30
2018-05-05T16:17:17.717Z,54.60
2018-05-05T16:19:45.697Z,54.90
2018-05-05T16:22:14.787Z,55.10
2018-05-05T16:24:42.428Z,55.10
2018-05-05T16:27:12.869Z,55.20
2018-05-05T16:29:49.834Z,55.40
2018-05-05T16:32:17.749Z,55.60
2018-05-05T16:34:45.571Z,56.20
2018-05-05T16:37:13.446Z,56.30
2018-05-05T16:39:43.407Z,57.00
2018-05-05T16:42:11.321Z,57.30
2018-05-05T16:44:40.180Z,57.20
2018-05-05T16:47:14.968Z,57.50
2018-05-05T16:49:47.953Z,57.90
2018-05-05T16:52:16.170Z,57.90
2018-05-05T16:54:44.068Z,57.80
2018-05-05T16:57:12.214Z,57.70
2018-05-05T16:59:40.196Z,57.00
2018-05-05T17:02:11.088Z,56.20
2018-05-05T17:04:39.176Z,56.10
2018-05-05T17:07:07.933Z,56.80
2018-05-05T17:09:35.995Z,56.70
2018-05-05T17:12:04.793Z,57.10
2018-05-05T17:14:32.773Z,57.00
2018-05-05T17:17:01.412Z,57.90
2018-05-05T17:19:29.387Z,57.80
2018-05-05T17:21:57.215Z,58.20
2018-05-05T17:24:25.898Z,58.80
2018-05-05T17:26:53.869Z,58.90
2018-05-05T17:29:23.476Z,59.20
2018-05-05T17:31:51.354Z,59.30
2018-05-05T17:34:19.983Z,59.30
2018-05-05T17:36:48.257Z,59.30
2018-05-05T17:39:16.141Z,59.30
2018-05-05T17:41:44.112Z,59.40
2018-05-05T17:44:15.092Z,58.90
2018-05-05T17:46:44.054Z,58.90
2018-05-05T17:49:13.730Z,58.30
2018-05-05T17:51:46.666Z,58.10
2018-05-05T17:54:14.737Z,58.30
2018-05-05T17:56:42.785Z,58.40
2018-05-05T17:59:11.531Z,58.40
2018-05-05T18:01:39.729Z,58.80
2018-05-05T18:04:07.867Z,59.40
2018-05-05T18:06:35.899Z,59.20
2018-05-05T18:09:05.824Z,59.40
2018-05-05T18:11:33.604Z,59.40
2018-05-05T18:14:02.358Z,59.40
2018-05-05T18:16:30.473Z,59.30
2018-05-05T18:18:59.175Z,60.10
2018-05-05T18:21:27.572Z,60.10
2018-05-05T18:23:55.500Z,60.70
2018-05-05T18:26:24.319Z,61.40
2018-05-05T18:28:52.432Z,61.20
2018-05-05T18:31:20.211Z,61.60
2018-05-05T18:33:48.157Z,61.70
2018-05-05T18:36:16.173Z,61.70
2018-05-05T18:38:44.058Z,62.10
2018-05-05T18:41:12.732Z,62.40
2018-05-05T18:43:41.064Z,62.60
2018-05-05T18:46:09.394Z,62.90
2018-05-05T18:48:37.265Z,62.80
2018-05-05T18:51:08.148Z,62.60
2018-05-05T18:53:36.900Z,62.70
2018-05-05T18:56:07.144Z,62.20
2018-05-05T18:58:36.977Z,62.30
2018-05-05T19:01:05.193Z,62.30
2018-05-05T19:03:34.501Z,62.50
2018-05-05T19:06:03.652Z,62.70
2018-05-05T19:08:31.836Z,62.70
2018-05-05T19:11:00.725Z,62.40
2018-05-05T19:13:36.256Z,62.30
2018-05-05T19:16:08.281Z,62.20
2018-05-05T19:18:37.128Z,62.20
2018-05-05T19:21:05.164Z,62.20
2018-05-05T19:23:33.216Z,62.10
2018-05-05T19:26:05.401Z,62.00
2018-05-05T19:28:33.621Z,61.90
2018-05-05T19:31:01.780Z,61.90
2018-05-05T19:33:30.000Z,62.10
2018-05-05T19:35:59.019Z,62.10
2018-05-05T19:38:32.463Z,62.00
2018-05-05T19:41:00.259Z,62.20
2018-05-05T19:43:28.211Z,62.40
2018-05-05T19:45:58.153Z,61.90
2018-05-05T19:48:27.336Z,62.00
2018-05-05T19:50:55.159Z,62.00
2018-05-05T19:53:23.039Z,61.90
2018-05-05T19:55:51.991Z,61.20
2018-05-05T19:58:20.026Z,61.40
2018-05-05T20:00:47.994Z,61.10
2018-05-05T20:03:16.910Z,61.10
2018-05-05T20:05:44.955Z,60.70
2018-05-05T20:08:12.815Z,60.70
2018-05-05T20:10:40.932Z,60.70
2018-05-05T20:13:08.964Z,61.10
2018-05-05T20:15:37.418Z,61.20
2018-05-05T20:18:05.382Z,61.30
2018-05-05T20:20:33.510Z,61.30
2018-05-05T20:23:05.663Z,61.60
2018-05-05T20:25:34.211Z,61.90
2018-05-05T20:28:02.238Z,61.90
2018-05-05T20:30:30.099Z,61.90
2018-05-05T20:32:59.448Z,61.80
2018-05-05T20:35:27.417Z,61.80
2018-05-05T20:37:58.313Z,62.40
2018-05-05T20:40:27.593Z,62.50
2018-05-05T20:42:56.271Z,62.40
2018-05-05T20:45:25.392Z,62.40
2018-05-05T20:47:54.552Z,61.80
2018-05-05T20:50:22.597Z,62.10
2018-05-05T20:52:50.510Z,61.90
2018-05-05T20:55:19.423Z,62.30
2018-05-05T20:57:47.424Z,62.30
2018-05-05T21:00:16.133Z,62.20
2018-05-05T21:02:44.289Z,62.10
2018-05-05T21:05:12.149Z,62.50
2018-05-05T21:07:40.776Z,62.70
2018-05-05T21:10:09.018Z,63.20
2018-05-05T21:12:37.204Z,62.90
2018-05-05T21:15:06.219Z,63.00
2018-05-05T21:17:35.205Z,63.40
2018-05-05T21:20:03.173Z,63.20
2018-05-05T21:22:32.598Z,63.20
2018-05-05T21:25:00.435Z,63.20
2018-05-05T21:27:29.659Z,63.40
2018-05-05T21:29:57.749Z,64.30
2018-05-05T21:32:27.460Z,64.00
2018-05-05T21:34:56.527Z,63.80
2018-05-05T21:37:24.522Z,63.80
2018-05-05T21:39:52.798Z,64.00
2018-05-05T21:42:22.051Z,63.80
2018-05-05T21:44:50.241Z,63.80
2018-05-05T21:47:18.642Z,63.90
2018-05-05T21:49:47.490Z,63.60
2018-05-05T21:52:16.013Z,63.50
2018-05-05T21:54:43.940Z,63.80
2018-05-05T21:57:12.096Z,63.70
2018-05-05T21:59:39.895Z,64.00
2018-05-05T22:02:07.798Z,64.00
2018-05-05T22:04:35.803Z,64.20
2018-05-05T22:07:05.011Z,64.20
2018-05-05T22:09:33.579Z,64.70
2018-05-05T22:12:01.712Z,65.00
2018-05-05T22:14:29.674Z,64.90
2018-05-05T22:16:57.805Z,65.10
2018-05-05T22:19:26.020Z,65.30
2018-05-05T22:21:54.237Z,65.30
2018-05-05T22:24:22.097Z,65.50
2018-05-05T22:26:50.531Z,65.60
2018-05-05T22:29:18.605Z,65.40
2018-05-05T22:31:46.722Z,65.60
2018-05-05T22:34:14.591Z,65.70
2018-05-05T22:36:42.468Z,65.60
2018-05-05T22:39:10.353Z,66.30
2018-05-05T22:41:38.297Z,66.10
2018-05-05T22:44:06.204Z,66.30
2018-05-05T22:46:34.902Z,66.50
2018-05-05T22:49:03.140Z,66.40
2018-05-05T22:51:31.957Z,66.60
2018-05-05T22:54:00.080Z,66.60
2018-05-05T22:56:28.123Z,66.70
2018-05-05T23:01:49.645Z,68.00
2018-05-05T23:04:18.224Z,68.30
